Time;durP1;ratioP1;P1;durP2;ratioP2;P2;SDS_P1;SDS_P2;PMS_P1;PMS_P2;Temp;Humidity;BMP_temperature;BMP_pressure;BME280_temperature;BME280_humidity;BME280_pressure;Samples;Min_cycle;Max_cycle;Signal;HPM_P1;HPM_P2
2021/09/24 00:01:05;;;;;;;16.50;7.70;;;;;;;11.16;83.10;95752.28;4972614;28;20047;-78
2021/09/24 00:03:31;;;;;;;12.70;6.68;;;;;;;11.13;84.13;95752.78;4964615;28;20043;-78
2021/09/24 00:05:56;;;;;;;13.80;7.18;;;;;;;11.02;83.56;95756.47;4970644;28;20054;-78
2021/09/24 00:08:22;;;;;;;12.20;6.70;;;;;;;11.02;84.16;95752.03;4971089;28;20039;-78
2021/09/24 00:10:48;;;;;;;13.88;6.40;;;;;;;11.15;83.71;95760.41;4970775;28;20544;-77
2021/09/24 00:13:14;;;;;;;15.05;7.57;;;;;;;11.22;83.52;95756.47;4970769;28;20046;-78
2021/09/24 00:15:39;;;;;;;12.57;6.60;;;;;;;10.95;84.29;95755.97;4977084;28;20050;-78
2021/09/24 00:18:05;;;;;;;12.50;6.78;;;;;;;10.92;84.58;95752.81;4970757;28;20043;-78
2021/09/24 00:20:34;;;;;;;13.27;7.05;;;;;;;11.02;84.92;95761.75;4971309;28;20066;-77
2021/09/24 00:22:59;;;;;;;13.15;6.80;;;;;;;10.95;85.03;95755.97;4970827;28;20129;-77
2021/09/24 00:25:25;;;;;;;12.45;7.15;;;;;;;11.01;84.75;95754.91;4966605;28;20110;-77
2021/09/24 00:27:51;;;;;;;16.73;6.97;;;;;;;11.23;84.14;95751.97;4955406;28;20045;-78
2021/09/24 00:30:16;;;;;;;16.50;7.88;;;;;;;11.31;84.01;95737.47;4969607;28;20097;-77
2021/09/24 00:32:42;;;;;;;15.82;7.90;;;;;;;11.33;84.01;95751.94;4962268;28;20430;-78
2021/09/24 00:35:08;;;;;;;12.30;6.78;;;;;;;11.35;84.19;95743.78;4971014;28;20079;-78
2021/09/24 00:37:34;;;;;;;16.60;7.93;;;;;;;11.27;83.89;95737.22;4955647;28;20094;-77
2021/09/24 00:40:00;;;;;;;16.95;8.63;;;;;;;11.22;85.17;95735.38;4970118;28;20500;-78
2021/09/24 00:42:26;;;;;;;15.70;7.15;;;;;;;11.38;84.26;95735.34;4970961;28;20114;-78
2021/09/24 00:44:52;;;;;;;14.27;7.63;;;;;;;11.50;83.95;95730.56;4968608;28;20393;-78
2021/09/24 00:47:21;;;;;;;13.13;7.32;;;;;;;11.53;83.93;95732.63;4970503;28;20563;-77
2021/09/24 00:49:48;;;;;;;14.40;7.88;;;;;;;11.46;84.55;95729.50;4970133;28;20548;-78
2021/09/24 00:52:17;;;;;;;16.05;7.82;;;;;;;11.54;84.37;95726.31;4971711;28;20098;-77
2021/09/24 00:54:46;;;;;;;18.02;8.73;;;;;;;11.58;84.47;95726.59;4969816;28;20094;-77
2021/09/24 00:57:12;;;;;;;18.73;8.65;;;;;;;11.67;84.70;95719.69;4971301;28;20051;-78
2021/09/24 00:59:37;;;;;;;19.10;8.48;;;;;;;11.74;83.99;95716.75;4970805;28;20049;-78
2021/09/24 01:02:03;;;;;;;18.00;8.75;;;;;;;11.82;83.80;95716.16;4957696;28;20924;-77
2021/09/24 01:04:29;;;;;;;16.23;8.45;;;;;;;11.86;83.78;95716.44;4970550;28;20101;-77
2021/09/24 01:06:55;;;;;;;19.20;8.40;;;;;;;11.89;83.63;95716.66;4968808;28;20488;-77
2021/09/24 01:09:21;;;;;;;17.05;8.80;;;;;;;12.04;83.71;95709.75;4969574;28;20287;-77
2021/09/24 01:11:47;;;;;;;17.90;8.27;;;;;;;12.00;83.69;95711.38;4968362;28;20127;-77
2021/09/24 01:14:12;;;;;;;15.35;8.43;;;;;;;12.01;83.56;95710.31;4969848;28;20045;-78
2021/09/24 01:16:38;;;;;;;15.38;8.45;;;;;;;12.08;83.72;95716.06;4968674;28;20130;-77
2021/09/24 01:19:04;;;;;;;14.35;8.32;;;;;;;12.21;83.73;95712.81;4970030;28;20127;-77
2021/09/24 01:21:34;;;;;;;18.25;8.52;;;;;;;12.24;83.50;95712.28;4970078;28;20038;-77
2021/09/24 01:24:00;;;;;;;13.60;7.78;;;;;;;12.29;83.18;95717.50;4968483;28;20047;-79
2021/09/24 01:26:26;;;;;;;16.02;8.10;;;;;;;12.33;82.88;95720.41;4969485;28;20046;-77
2021/09/24 01:28:52;;;;;;;16.85;8.80;;;;;;;12.33;83.25;95714.34;4969924;28;20097;-77
2021/09/24 01:31:19;;;;;;;16.02;8.25;;;;;;;12.37;83.18;95720.63;4967779;28;20054;-78
2021/09/24 01:33:47;;;;;;;15.25;8.63;;;;;;;12.39;83.39;95718.50;4955916;28;20047;-78
2021/09/24 01:36:12;;;;;;;16.75;8.50;;;;;;;12.33;83.31;95714.34;4952766;28;20043;-77
2021/09/24 01:38:38;;;;;;;15.65;8.57;;;;;;;12.24;84.14;95716.75;4968182;28;20115;-78
2021/09/24 01:41:05;;;;;;;13.52;8.13;;;;;;;12.34;83.85;95711.41;4972910;28;20126;-77
2021/09/24 01:43:31;;;;;;;15.93;8.40;;;;;;;12.29;83.80;95704.31;4972079;28;20038;-77
2021/09/24 01:45:57;;;;;;;15.65;8.50;;;;;;;12.32;84.03;95707.47;4970676;28;21036;-77
2021/09/24 01:48:24;;;;;;;14.18;8.05;;;;;;;12.08;84.40;95713.41;4974584;28;20442;-77
2021/09/24 01:50:49;;;;;;;16.60;8.50;;;;;;;12.18;84.36;95707.28;4968023;28;20077;-77
2021/09/24 01:53:15;;;;;;;16.17;8.63;;;;;;;12.16;84.94;95710.22;4960397;28;20074;-77
2021/09/24 01:55:41;;;;;;;17.92;8.32;;;;;;;12.15;84.69;95713.91;4957799;28;20046;-77
2021/09/24 01:58:07;;;;;;;17.45;8.65;;;;;;;12.17;84.85;95706.53;4973646;28;20054;-78
2021/09/24 02:00:32;;;;;;;14.57;8.57;;;;;;;12.10;85.14;95708.69;4971828;28;20473;-77
2021/09/24 02:02:58;;;;;;;15.40;8.32;;;;;;;12.00;85.29;95703.47;4973374;28;20101;-77
2021/09/24 02:05:24;;;;;;;14.93;7.85;;;;;;;12.09;85.24;95699.19;4972168;28;20513;-77
2021/09/24 02:07:49;;;;;;;17.65;8.48;;;;;;;12.03;85.79;95706.34;4972127;28;20043;-78
2021/09/24 02:10:16;;;;;;;14.77;8.27;;;;;;;12.12;85.38;95709.19;4973139;28;20078;-77
2021/09/24 02:12:42;;;;;;;15.88;8.10;;;;;;;12.07;85.49;95711.88;4971569;28;20045;-78
2021/09/24 02:15:08;;;;;;;17.45;8.80;;;;;;;11.99;86.17;95709.78;4969614;28;20043;-78
2021/09/24 02:17:34;;;;;;;14.57;8.40;;;;;;;12.09;85.92;95717.66;4963587;28;20039;-78
2021/09/24 02:19:59;;;;;;;14.50;7.82;;;;;;;11.96;86.53;95717.19;4970966;28;20294;-78
2021/09/24 02:22:25;;;;;;;18.98;8.95;;;;;;;11.76;87.24;95723.31;4969482;28;20046;-77
2021/09/24 02:24:50;;;;;;;15.70;9.27;;;;;;;11.77;87.46;95724.13;4964949;28;20050;-78
2021/09/24 02:27:16;;;;;;;17.23;9.15;;;;;;;11.83;87.61;95728.31;4973548;28;20043;-78
2021/09/24 02:29:41;;;;;;;17.77;9.30;;;;;;;11.85;87.68;95720.13;4972743;28;20542;-77
2021/09/24 02:32:07;;;;;;;15.82;8.18;;;;;;;11.73;87.93;95729.13;4970417;28;20197;-77
2021/09/24 02:34:33;;;;;;;19.85;9.93;;;;;;;11.63;87.93;95728.41;4973636;28;20516;-78
2021/09/24 02:36:58;;;;;;;16.27;8.55;;;;;;;11.65;87.85;95732.34;4964230;28;20054;-77
2021/09/24 02:39:24;;;;;;;16.20;9.00;;;;;;;11.68;88.11;95731.00;4971068;28;20039;-77
2021/09/24 02:41:50;;;;;;;15.40;8.82;;;;;;;11.50;88.83;95735.81;4971563;28;20046;-78
2021/09/24 02:44:15;;;;;;;15.60;8.90;;;;;;;11.58;88.41;95737.13;4970289;28;20053;-77
2021/09/24 02:46:41;;;;;;;16.70;8.90;;;;;;;11.52;89.09;95744.25;4972406;28;20101;-77
2021/09/24 02:49:07;;;;;;;19.05;9.35;;;;;;;11.59;89.07;95744.75;4966840;28;20480;-78
2021/09/24 02:51:33;;;;;;;16.83;8.25;;;;;;;11.65;88.64;95736.81;4953789;28;20043;-77
2021/09/24 02:53:58;;;;;;;15.18;8.27;;;;;;;11.82;88.16;95745.19;4971084;28;20042;-77
2021/09/24 02:56:24;;;;;;;18.25;10.48;;;;;;;11.75;88.20;95736.78;4972725;28;20055;-77
2021/09/24 02:58:50;;;;;;;16.42;9.25;;;;;;;11.78;88.31;95736.25;4971580;28;20054;-77
2021/09/24 03:01:15;;;;;;;18.73;9.23;;;;;;;11.72;88.27;95742.59;4971871;28;20050;-77
2021/09/24 03:03:41;;;;;;;18.35;9.80;;;;;;;11.70;88.52;95734.16;4967046;28;20050;-78
2021/09/24 03:06:07;;;;;;;15.65;8.32;;;;;;;11.58;88.36;95737.91;4969045;28;20112;-78
2021/09/24 03:08:32;;;;;;;18.85;8.95;;;;;;;11.53;90.12;95735.28;4954404;28;20105;-78
2021/09/24 03:10:58;;;;;;;15.48;8.63;;;;;;;11.39;90.11;95744.81;4963329;28;20047;-77
2021/09/24 03:13:23;;;;;;;16.33;8.55;;;;;;;11.42;89.43;95749.53;4972772;28;20841;-77
2021/09/24 03:15:49;;;;;;;15.27;8.77;;;;;;;11.34;90.19;95742.22;4966377;28;20045;-78
2021/09/24 03:18:14;;;;;;;19.30;9.02;;;;;;;11.21;90.25;95744.34;4973030;28;20043;-77
2021/09/24 03:20:40;;;;;;;15.75;8.23;;;;;;;11.00;90.95;95753.34;4972483;28;20046;-78
2021/09/24 03:23:06;;;;;;;18.35;8.80;;;;;;;10.87;91.04;95755.44;4971280;28;20405;-78
2021/09/24 03:25:31;;;;;;;16.45;8.63;;;;;;;10.80;91.48;95749.66;4967703;28;20073;-78
2021/09/24 03:27:57;;;;;;;18.15;8.05;;;;;;;10.79;91.50;95753.38;4972963;28;20047;-78
2021/09/24 03:30:24;;;;;;;17.83;8.55;;;;;;;10.60;91.69;95749.66;4972633;28;20137;-76
2021/09/24 03:32:50;;;;;;;18.08;8.43;;;;;;;10.55;92.79;95748.59;4971428;28;20620;-78
2021/09/24 03:35:15;;;;;;;15.60;8.57;;;;;;;10.73;92.09;95743.88;4958397;28;20114;-77
2021/09/24 03:37:42;;;;;;;18.58;9.88;;;;;;;10.67;93.00;95745.72;4971079;28;20038;-77
2021/09/24 03:40:08;;;;;;;17.95;9.18;;;;;;;10.68;94.18;95736.00;4965259;28;20049;-77
2021/09/24 03:42:34;;;;;;;16.92;8.95;;;;;;;10.56;93.14;95734.41;4970330;28;20047;-77
2021/09/24 03:45:00;;;;;;;16.60;9.02;;;;;;;10.68;93.06;95741.25;4965452;28;20078;-77
2021/09/24 03:47:25;;;;;;;19.48;9.60;;;;;;;10.56;92.96;95733.63;4970458;28;20269;-77
2021/09/24 03:49:51;;;;;;;16.02;9.40;;;;;;;10.27;94.61;95738.56;4968265;28;20043;-77
2021/09/24 03:52:16;;;;;;;17.40;9.43;;;;;;;10.42;94.44;95738.63;4970156;28;20050;-77
2021/09/24 03:54:42;;;;;;;19.77;9.98;;;;;;;10.68;94.33;95730.72;4975250;28;20038;-77
2021/09/24 03:57:07;;;;;;;19.02;9.68;;;;;;;10.69;94.17;95727.06;4969483;28;20616;-77
2021/09/24 03:59:33;;;;;;;19.55;9.15;;;;;;;10.63;94.52;95725.44;4969847;28;20086;-77
2021/09/24 04:01:58;;;;;;;18.20;9.57;;;;;;;10.55;93.82;95732.81;4958003;28;20050;-77
2021/09/24 04:04:24;;;;;;;16.80;8.93;;;;;;;10.37;93.87;95741.22;4968017;28;20703;-77
2021/09/24 04:06:50;;;;;;;17.77;9.45;;;;;;;10.41;95.31;95742.28;4962116;28;20077;-77
2021/09/24 04:09:15;;;;;;;20.10;10.75;;;;;;;10.26;94.63;95739.59;4952728;29;20101;-77
2021/09/24 04:11:41;;;;;;;16.95;9.13;;;;;;;10.31;95.06;95747.50;4963703;28;20113;-77
2021/09/24 04:14:07;;;;;;;19.48;9.70;;;;;;;10.43;95.98;95745.47;4971446;28;20441;-78
2021/09/24 04:16:33;;;;;;;20.10;10.38;;;;;;;10.51;95.44;95738.88;4969617;28;20042;-78
2021/09/24 04:18:58;;;;;;;20.77;9.98;;;;;;;10.56;95.29;95744.94;4971386;28;20723;-78
2021/09/24 04:21:24;;;;;;;18.65;10.13;;;;;;;10.51;94.59;95744.91;4964248;28;20516;-77
2021/09/24 04:23:50;;;;;;;20.40;9.75;;;;;;;10.53;94.80;95745.47;4965840;28;20039;-77
2021/09/24 04:26:16;;;;;;;18.50;9.98;;;;;;;10.23;94.13;95744.34;4955991;28;20539;-77
2021/09/24 04:28:42;;;;;;;17.10;8.90;;;;;;;10.14;95.24;95732.78;4961484;28;20054;-77
2021/09/24 04:31:07;;;;;;;15.93;8.82;;;;;;;10.14;94.66;95738.03;4968915;28;20047;-77
2021/09/24 04:33:33;;;;;;;17.90;9.57;;;;;;;10.20;94.69;95739.63;4969923;28;20063;-77
2021/09/24 04:35:58;;;;;;;18.80;9.77;;;;;;;10.43;95.84;95740.19;4962962;28;20117;-77
2021/09/24 04:38:24;;;;;;;21.92;9.98;;;;;;;10.36;94.73;95737.03;4958961;28;20039;-77
2021/09/24 04:40:49;;;;;;;18.35;9.98;;;;;;;10.48;95.57;95742.03;4971440;28;20076;-77
2021/09/24 04:43:15;;;;;;;17.83;9.35;;;;;;;10.53;95.09;95747.28;4965307;28;20116;-77
2021/09/24 04:45:41;;;;;;;17.50;9.60;;;;;;;10.48;95.52;95750.72;4966829;28;20039;-78
2021/09/24 04:48:06;;;;;;;16.80;9.07;;;;;;;10.45;95.15;95748.59;4951851;28;20058;-78
2021/09/24 04:50:32;;;;;;;19.45;10.20;;;;;;;10.56;95.19;95738.91;4956553;28;20042;-78
2021/09/24 04:52:57;;;;;;;17.13;8.80;;;;;;;10.48;94.55;95750.72;4969975;28;20075;-78
2021/09/24 04:55:23;;;;;;;20.17;8.98;;;;;;;10.44;94.28;95747.03;4969036;28;20126;-78
2021/09/24 04:57:49;;;;;;;19.13;9.52;;;;;;;10.61;94.37;95746.00;4954527;28;20159;-77
2021/09/24 05:00:15;;;;;;;19.77;9.10;;;;;;;10.56;94.79;95752.06;4970079;28;20038;-78
2021/09/24 05:02:41;;;;;;;16.17;8.77;;;;;;;10.44;94.58;95751.50;4968220;28;20069;-78
2021/09/24 05:05:08;;;;;;;19.58;9.93;;;;;;;10.39;94.38;95750.44;4961167;28;20039;-78
2021/09/24 05:07:35;;;;;;;17.20;9.02;;;;;;;10.30;94.79;95756.44;4966133;28;20526;-78
2021/09/24 05:10:01;;;;;;;16.58;8.88;;;;;;;10.06;95.12;95762.19;4951844;28;20043;-78
2021/09/24 05:12:26;;;;;;;16.48;9.15;;;;;;;10.05;95.27;95765.88;4970148;28;20512;-77
2021/09/24 05:14:52;;;;;;;17.05;8.63;;;;;;;10.09;95.13;95760.91;4972320;28;20065;-77
2021/09/24 05:17:18;;;;;;;17.70;9.13;;;;;;;10.00;95.03;95765.88;4973879;28;20161;-78
2021/09/24 05:19:43;;;;;;;17.13;9.27;;;;;;;9.89;96.19;95762.41;4972673;28;20043;-78
2021/09/24 05:22:09;;;;;;;19.85;9.35;;;;;;;9.94;96.10;95769.53;4970949;28;20043;-78
2021/09/24 05:24:34;;;;;;;18.13;9.18;;;;;;;10.01;96.42;95775.31;4972727;28;20130;-78
2021/09/24 05:27:00;;;;;;;19.00;9.25;;;;;;;9.97;97.08;95771.63;4971640;28;20054;-77
2021/09/24 05:29:27;;;;;;;18.42;8.88;;;;;;;9.94;96.03;95772.16;4970986;28;20051;-78
2021/09/24 05:31:53;;;;;;;16.55;8.73;;;;;;;9.80;95.97;95770.00;4958374;28;20176;-77
2021/09/24 05:34:19;;;;;;;18.13;9.27;;;;;;;9.73;97.29;95776.56;4972298;28;20634;-78
2021/09/24 05:36:44;;;;;;;18.83;9.10;;;;;;;9.86;96.99;95790.00;4967077;28;20051;-78
2021/09/24 05:39:10;;;;;;;18.73;9.13;;;;;;;10.08;97.20;95791.66;4974588;28;20185;-78
2021/09/24 05:41:36;;;;;;;17.23;8.70;;;;;;;10.19;96.99;95793.25;4974092;28;20043;-78
2021/09/24 05:44:02;;;;;;;19.08;9.23;;;;;;;10.43;96.42;95787.56;4964270;28;20093;-77
2021/09/24 05:46:28;;;;;;;16.85;9.02;;;;;;;10.46;96.09;95788.84;4964990;28;20050;-78
2021/09/24 05:48:53;;;;;;;19.13;9.02;;;;;;;10.50;95.73;95785.47;4972304;28;20068;-78
2021/09/24 05:51:19;;;;;;;14.82;8.27;;;;;;;10.60;95.17;95791.78;4970519;28;20493;-78
2021/09/24 05:53:44;;;;;;;19.38;8.63;;;;;;;10.70;95.25;95802.31;4953234;28;20506;-78
2021/09/24 05:56:10;;;;;;;15.52;7.88;;;;;;;10.72;95.05;95795.72;4961140;28;20122;-78
2021/09/24 05:58:36;;;;;;;19.02;8.60;;;;;;;10.74;94.97;95804.16;4973483;28;20077;-78
2021/09/24 06:01:02;;;;;;;15.07;8.18;;;;;;;10.83;94.57;95801.00;4973540;28;20058;-77
2021/09/24 06:03:28;;;;;;;16.83;8.38;;;;;;;10.97;94.03;95811.81;4970902;28;20062;-78
2021/09/24 06:05:53;;;;;;;14.32;7.72;;;;;;;11.01;94.07;95807.59;4957269;28;20043;-78
2021/09/24 06:08:19;;;;;;;15.00;8.15;;;;;;;11.03;94.20;95816.00;4968408;28;20097;-78
2021/09/24 06:10:45;;;;;;;17.52;8.30;;;;;;;11.13;93.53;95815.22;4973520;28;20050;-78
2021/09/24 06:13:10;;;;;;;13.93;7.88;;;;;;;11.05;94.19;95813.91;4972631;28;20039;-78
2021/09/24 06:15:37;;;;;;;16.83;7.30;;;;;;;11.11;94.04;95818.13;4955792;28;20059;-78
2021/09/24 06:18:04;;;;;;;13.68;7.32;;;;;;;11.18;93.64;95818.63;4986265;28;20035;-78
2021/09/24 06:20:29;;;;;;;18.55;7.85;;;;;;;11.34;93.08;95823.88;4971617;28;20493;-78
2021/09/24 06:22:55;;;;;;;13.68;7.43;;;;;;;11.37;92.51;95820.72;4963975;28;20043;-78
2021/09/24 06:25:22;;;;;;;14.77;7.88;;;;;;;11.39;92.24;95822.03;4956257;28;20114;-78
2021/09/24 06:27:48;;;;;;;14.85;8.30;;;;;;;11.51;91.63;95821.75;4971540;28;20043;-77
2021/09/24 06:30:20;;;;;;;14.60;8.38;;;;;;;11.51;91.97;95827.00;4972444;28;20043;-77
2021/09/24 06:32:46;;;;;;;16.10;7.45;;;;;;;11.55;91.75;95816.72;4977164;28;20039;-78
2021/09/24 06:35:12;;;;;;;16.00;7.43;;;;;;;11.64;91.54;95814.31;4972345;28;20046;-78
2021/09/24 06:37:38;;;;;;;14.00;7.30;;;;;;;11.76;90.83;95812.97;4971234;28;20525;-78
2021/09/24 06:40:06;;;;;;;13.65;6.88;;;;;;;11.67;91.50;95813.81;4966057;28;20376;-78
2021/09/24 06:42:32;;;;;;;12.80;6.68;;;;;;;11.80;90.36;95813.22;4969982;28;20508;-78
2021/09/24 06:44:58;;;;;;;13.93;7.03;;;;;;;11.87;90.34;95819.00;4972125;28;20046;-78
2021/09/24 06:47:25;;;;;;;11.80;6.82;;;;;;;11.91;90.25;95814.78;4973104;28;20127;-78
2021/09/24 06:49:51;;;;;;;11.57;6.80;;;;;;;12.01;89.64;95818.44;4971137;28;20531;-78
2021/09/24 06:52:17;;;;;;;22.13;7.32;;;;;;;12.12;89.29;95819.97;4972982;28;20042;-78
2021/09/24 06:54:43;;;;;;;12.90;7.28;;;;;;;12.16;89.48;95826.28;4967118;28;20169;-78
2021/09/24 06:57:09;;;;;;;13.07;6.57;;;;;;;12.34;88.23;95822.25;4969257;28;20045;-77
2021/09/24 06:59:35;;;;;;;12.95;6.95;;;;;;;12.34;88.70;95821.44;4969790;28;20050;-77
2021/09/24 07:02:00;;;;;;;11.88;6.82;;;;;;;12.49;88.56;95824.00;4965959;28;20074;-78
2021/09/24 07:04:26;;;;;;;15.45;6.90;;;;;;;12.41;88.84;95827.22;4963351;28;20046;-78
2021/09/24 07:06:51;;;;;;;13.35;7.22;;;;;;;12.76;86.83;95817.50;4967046;28;20536;-78
2021/09/24 07:09:17;;;;;;;13.98;7.38;;;;;;;12.80;85.03;95813.22;4970002;28;20062;-78
2021/09/24 07:11:48;;;;;;;13.32;7.38;;;;;;;12.94;84.89;95814.19;4968660;28;20130;-77
2021/09/24 07:14:13;;;;;;;12.40;7.00;;;;;;;12.90;85.77;95822.94;4963979;28;20039;-78
2021/09/24 07:16:39;;;;;;;13.23;7.07;;;;;;;12.96;86.29;95821.84;4969175;28;20047;-79
2021/09/24 07:19:05;;;;;;;13.35;7.65;;;;;;;13.07;85.23;95819.91;4973647;28;20050;-79
2021/09/24 07:21:32;;;;;;;11.95;7.15;;;;;;;13.24;84.81;95825.56;4972681;28;20039;-78
2021/09/24 07:23:58;;;;;;;16.30;7.10;;;;;;;13.15;83.96;95833.28;4967714;28;20058;-79
2021/09/24 07:26:24;;;;;;;15.25;7.05;;;;;;;13.20;84.42;95836.97;4967212;28;20501;-78
2021/09/24 07:28:51;;;;;;;14.55;7.20;;;;;;;13.17;83.94;95838.31;4964375;28;20102;-78
2021/09/24 07:31:17;;;;;;;15.23;7.65;;;;;;;13.31;83.69;95831.31;4966926;28;20047;-78
2021/09/24 07:33:43;;;;;;;13.30;7.40;;;;;;;13.31;84.25;95836.59;4965399;28;20698;-78
2021/09/24 07:36:10;;;;;;;18.20;6.40;;;;;;;13.84;81.56;95845.63;4962160;28;20046;-77
2021/09/24 07:38:35;;;;;;;11.55;6.50;;;;;;;13.70;81.37;95845.50;4960957;28;20101;-77
2021/09/24 07:41:01;;;;;;;13.00;6.72;;;;;;;13.78;81.65;95842.25;4968354;28;20046;-77
2021/09/24 07:43:26;;;;;;;12.20;6.68;;;;;;;13.94;80.77;95839.44;4981489;28;20042;-77
2021/09/24 07:45:52;;;;;;;14.55;6.45;;;;;;;13.91;80.84;95843.44;4959593;28;20043;-76
2021/09/24 07:48:17;;;;;;;16.40;6.68;;;;;;;14.00;80.02;95839.09;4967142;28;20043;-77
2021/09/24 07:50:43;;;;;;;12.20;6.78;;;;;;;14.07;79.26;95843.25;4950446;28;20631;-76
2021/09/24 07:53:09;;;;;;;11.57;6.28;;;;;;;14.12;78.89;95841.34;4956268;28;20126;-76
2021/09/24 07:55:34;;;;;;;10.75;6.43;;;;;;;14.33;78.50;95839.22;4970161;28;20515;-76
2021/09/24 07:58:00;;;;;;;12.65;6.28;;;;;;;14.61;78.21;95843.88;4964972;28;20058;-75
2021/09/24 08:00:28;;;;;;;12.45;6.15;;;;;;;14.70;77.15;95844.84;4969254;28;20102;-75
2021/09/24 08:02:54;;;;;;;13.60;6.93;;;;;;;14.61;76.74;95842.03;4967450;28;20047;-77
2021/09/24 08:05:20;;;;;;;13.13;6.07;;;;;;;14.65;76.73;95848.38;4975412;28;20047;-77
2021/09/24 08:07:46;;;;;;;13.40;6.35;;;;;;;14.65;77.20;95848.38;4968729;28;20070;-76
2021/09/24 08:10:12;;;;;;;19.48;6.88;;;;;;;14.98;75.87;95853.69;4967124;28;20087;-76
2021/09/24 08:12:38;;;;;;;13.13;6.50;;;;;;;15.09;75.64;95853.56;4969046;28;20496;-76
2021/09/24 08:15:06;;;;;;;12.13;6.75;;;;;;;15.01;76.42;95845.19;4963660;28;20113;-76
2021/09/24 08:17:31;;;;;;;11.48;6.45;;;;;;;14.83;75.05;95844.13;4950565;28;20114;-76
2021/09/24 08:19:58;;;;;;;15.07;6.22;;;;;;;14.96;74.44;95847.91;4949162;29;20126;-77
2021/09/24 08:22:24;;;;;;;13.07;6.20;;;;;;;15.09;74.97;95845.59;4950886;28;20043;-77
2021/09/24 08:24:50;;;;;;;11.10;6.13;;;;;;;15.25;73.13;95844.25;4957448;28;20054;-76
2021/09/24 08:27:15;;;;;;;13.90;6.28;;;;;;;15.42;72.85;95849.78;4949546;28;20043;-77
2021/09/24 08:29:41;;;;;;;12.57;6.25;;;;;;;15.35;73.95;95846.75;4950255;29;20062;-76
2021/09/24 08:32:07;;;;;;;11.15;6.47;;;;;;;15.51;73.14;95846.47;4950307;29;20043;-76
2021/09/24 08:34:32;;;;;;;13.32;6.40;;;;;;;15.75;72.63;95852.41;4957855;28;20039;-76
2021/09/24 08:36:58;;;;;;;18.13;6.40;;;;;;;15.80;71.30;95848.88;4958000;28;20720;-76
2021/09/24 08:39:24;;;;;;;12.20;6.30;;;;;;;15.80;70.85;95854.19;4950203;29;20051;-76
2021/09/24 08:41:49;;;;;;;9.15;5.20;;;;;;;15.80;71.46;95848.88;4950002;28;20042;-77
2021/09/24 08:44:15;;;;;;;9.05;5.65;;;;;;;15.76;71.20;95853.22;4948612;28;20042;-76
2021/09/24 08:46:41;;;;;;;10.75;5.82;;;;;;;15.73;72.34;95843.16;4948851;28;20047;-76
2021/09/24 08:49:07;;;;;;;10.48;5.53;;;;;;;15.83;71.61;95847.53;4951398;28;20058;-76
2021/09/24 08:51:34;;;;;;;11.45;4.97;;;;;;;15.82;71.27;95845.97;4949916;29;20047;-76
2021/09/24 08:54:02;;;;;;;9.20;5.90;;;;;;;15.86;72.50;95849.59;4950077;28;20130;-76
2021/09/24 08:56:28;;;;;;;13.00;5.90;;;;;;;15.95;71.24;95850.50;4950187;28;20044;-76
2021/09/24 08:58:53;;;;;;;10.70;5.40;;;;;;;15.97;72.20;95840.34;4949545;28;20082;-77
2021/09/24 09:01:19;;;;;;;13.60;6.20;;;;;;;16.06;69.41;95841.25;4969030;28;20406;-76
2021/09/24 09:03:46;;;;;;;11.80;6.05;;;;;;;16.04;72.52;95840.75;4963968;28;20043;-76
2021/09/24 09:06:17;;;;;;;11.07;5.63;;;;;;;16.11;72.33;95833.16;4950570;28;20043;-76
2021/09/24 09:08:45;;;;;;;10.00;5.72;;;;;;;16.16;71.09;95834.16;4948726;29;20039;-76
2021/09/24 09:11:21;;;;;;;14.63;6.03;;;;;;;16.16;71.10;95831.50;4965855;28;20054;-76
2021/09/24 09:13:50;;;;;;;8.73;5.47;;;;;;;16.28;71.45;95826.47;4968467;28;20098;-77
2021/09/24 09:16:31;;;;;;;12.65;6.15;;;;;;;16.25;70.75;95827.06;4949915;28;20741;-77
2021/09/24 09:19:08;;;;;;;11.75;5.68;;;;;;;16.23;70.50;95831.88;4949819;28;20130;-76
2021/09/24 09:21:34;;;;;;;10.73;5.78;;;;;;;16.34;70.79;95825.28;4966036;28;20074;-74
2021/09/24 09:24:14;;;;;;;10.27;6.15;;;;;;;16.47;70.50;95830.88;4967819;28;20046;-74
2021/09/24 09:26:39;;;;;;;10.20;5.70;;;;;;;16.63;69.69;95829.44;4969049;28;20070;-75
2021/09/24 09:29:09;;;;;;;10.30;5.90;;;;;;;16.82;68.80;95817.84;4969017;28;20723;-74
2021/09/24 09:31:35;;;;;;;10.23;6.07;;;;;;;16.87;67.82;95815.09;4968155;28;20125;-74
2021/09/24 09:34:06;;;;;;;10.05;6.13;;;;;;;16.82;67.90;95818.63;4952722;28;20469;-74
2021/09/24 09:36:40;;;;;;;12.02;6.25;;;;;;;16.78;68.77;95823.78;4955453;28;20043;-74
2021/09/24 09:39:10;;;;;;;10.82;6.03;;;;;;;16.91;68.11;95822.19;4969008;28;20075;-74
2021/09/24 09:41:36;;;;;;;11.48;6.13;;;;;;;17.10;66.92;95814.00;4958161;28;20043;-74
2021/09/24 09:44:02;;;;;;;11.25;6.25;;;;;;;17.13;67.02;95813.41;4949585;28;20819;-75
2021/09/24 09:46:34;;;;;;;14.80;6.30;;;;;;;17.30;67.50;95806.63;4948528;28;20073;-74
2021/09/24 09:49:09;;;;;;;12.20;6.57;;;;;;;17.48;66.70;95808.28;4949649;28;20464;-74
2021/09/24 09:51:37;;;;;;;9.75;6.28;;;;;;;17.66;65.67;95808.34;4964006;28;20055;-75
2021/09/24 09:54:04;;;;;;;10.88;6.45;;;;;;;17.91;66.06;95800.78;4949350;28;20047;-75
2021/09/24 09:56:49;;;;;;;11.18;6.07;;;;;;;18.01;65.15;95797.84;4949817;28;20360;-74
2021/09/24 09:59:21;;;;;;;10.95;6.57;;;;;;;18.47;64.15;95793.06;4952901;28;20461;-74
2021/09/24 10:01:47;;;;;;;12.10;6.05;;;;;;;18.76;63.05;95797.78;4953720;28;20059;-75
2021/09/24 10:04:13;;;;;;;11.93;6.60;;;;;;;19.12;61.46;95796.66;4954375;28;20047;-75
2021/09/24 10:06:40;;;;;;;14.40;6.47;;;;;;;19.35;60.40;95783.09;4959447;28;20047;-74
2021/09/24 10:09:06;;;;;;;12.40;6.70;;;;;;;19.78;59.05;95787.47;4972009;28;20047;-75
2021/09/24 10:11:37;;;;;;;14.07;6.32;;;;;;;19.92;58.32;95783.84;4971037;28;20042;-74
2021/09/24 10:14:11;;;;;;;14.88;7.00;;;;;;;20.13;57.66;95789.19;4967411;28;20043;-74
2021/09/24 10:16:47;;;;;;;13.38;6.45;;;;;;;20.31;56.87;95790.66;4968992;28;20038;-77
2021/09/24 10:19:14;;;;;;;12.27;6.88;;;;;;;20.75;56.14;95790.38;4969664;28;20034;-76
2021/09/24 10:21:40;;;;;;;12.68;6.68;;;;;;;20.71;56.46;95781.44;4966732;28;20047;-74
2021/09/24 10:24:06;;;;;;;13.38;6.88;;;;;;;20.43;56.94;95787.28;4969131;28;20496;-73
2021/09/24 10:26:47;;;;;;;9.52;5.80;;;;;;;20.67;56.46;95786.63;4970927;28;20047;-75
2021/09/24 10:29:22;;;;;;;12.50;6.80;;;;;;;21.15;54.88;95781.81;4971688;28;20047;-76
2021/09/24 10:31:50;;;;;;;14.40;6.60;;;;;;;21.35;54.57;95776.72;4969931;28;20054;-78
2021/09/24 10:34:21;;;;;;;11.27;6.43;;;;;;;21.45;54.73;95765.59;4984203;28;20090;-77
2021/09/24 10:36:55;;;;;;;12.35;6.63;;;;;;;21.43;53.86;95773.97;4969731;28;20154;-78
2021/09/24 10:39:30;;;;;;;11.05;6.75;;;;;;;21.96;51.79;95763.38;4985377;28;20103;-78
2021/09/24 10:42:14;;;;;;;11.35;7.05;;;;;;;22.23;51.45;95777.19;4975399;28;20097;-79
2021/09/24 10:45:09;;;;;;;13.90;7.47;;;;;;;22.41;51.46;95760.88;4973285;28;20457;-78
2021/09/24 10:48:07;;;;;;;14.93;7.10;;;;;;;22.58;50.23;95760.59;4976834;28;20508;-79
2021/09/24 10:50:46;;;;;;;11.02;6.95;;;;;;;22.37;49.66;95754.63;4955017;28;20059;-78
2021/09/24 10:55:53;;;;;;;15.52;7.40;;;;;;;22.01;50.93;95758.91;4972120;28;20071;-79
2021/09/24 10:58:28;;;;;;;11.88;7.43;;;;;;;22.66;51.82;95757.00;4971628;28;20073;-80
2021/09/24 11:01:11;;;;;;;13.57;7.47;;;;;;;22.29;51.57;95749.03;4971155;28;20043;-79
2021/09/24 11:03:51;;;;;;;11.82;7.18;;;;;;;23.10;49.15;95747.41;4960986;28;20552;-81
2021/09/24 11:06:33;;;;;;;14.25;7.43;;;;;;;22.92;48.71;95753.09;4966696;28;20039;-79
2021/09/24 11:09:00;;;;;;;14.98;7.50;;;;;;;22.94;48.93;95748.16;4971522;28;20039;-80
2021/09/24 11:11:32;;;;;;;12.90;7.93;;;;;;;22.73;49.10;95750.25;4967308;28;20054;-80
2021/09/24 11:13:59;;;;;;;10.75;7.00;;;;;;;22.96;48.56;95748.59;4971319;28;20049;-78
2021/09/24 11:16:43;;;;;;;10.88;7.57;;;;;;;23.25;49.14;95746.66;4970745;28;20101;-79
2021/09/24 11:19:46;;;;;;;10.80;7.07;;;;;;;24.05;48.34;95741.28;4972277;28;20572;-78
2021/09/24 11:22:13;;;;;;;11.23;6.82;;;;;;;23.70;45.98;95737.41;4955161;28;20395;-78
2021/09/24 11:24:42;;;;;;;14.40;7.93;;;;;;;23.70;47.05;95736.59;4958551;28;20051;-77
2021/09/24 11:27:11;;;;;;;12.70;7.47;;;;;;;23.76;44.08;95739.81;4968801;28;20417;-80